Time;durP1;ratioP1;P1;durP2;ratioP2;P2;SDS_P1;SDS_P2;PMS_P1;PMS_P2;Temp;Humidity;BMP_temperature;BMP_pressure;BME280_temperature;BME280_humidity;BME280_pressure;Samples;Min_cycle;Max_cycle;Signal;HPM_P1;HPM_P2
2021/10/17 00:00:32;;;;;;;8.33;3.90;;;9.80;98.30;;;;;;5204678;22;20904;-80
2021/10/17 00:02:36;;;;;;;5.27;4.00;;;9.80;98.30;;;;;;5194542;22;20538;-81
2021/10/17 00:04:39;;;;;;;8.87;4.50;;;9.80;98.30;;;;;;5194430;22;20423;-80
2021/10/17 00:06:42;;;;;;;7.27;4.20;;;9.80;98.30;;;;;;5194240;22;20457;-80
2021/10/17 00:08:45;;;;;;;5.40;4.20;;;9.80;98.30;;;;;;5194659;22;20510;-80
2021/10/17 00:10:48;;;;;;;5.93;3.60;;;9.80;98.30;;;;;;5195230;22;20471;-80
2021/10/17 00:12:52;;;;;;;9.97;5.00;;;9.80;98.30;;;;;;5195553;22;20931;-80
2021/10/17 00:14:56;;;;;;;5.70;3.60;;;9.80;98.30;;;;;;5195515;22;20752;-80
2021/10/17 00:16:59;;;;;;;6.20;4.50;;;9.80;98.30;;;;;;5195249;22;20502;-80
2021/10/17 00:19:02;;;;;;;9.53;4.30;;;9.80;98.30;;;;;;5195614;22;20928;-80
2021/10/17 00:21:05;;;;;;;8.37;4.50;;;9.80;98.30;;;;;;5195040;22;20441;-80
2021/10/17 00:23:09;;;;;;;5.80;4.07;;;9.80;98.30;;;;;;5203795;22;20446;-81
2021/10/17 00:25:13;;;;;;;6.37;3.67;;;9.80;98.30;;;;;;5204192;22;20510;-80
2021/10/17 00:27:16;;;;;;;8.60;5.07;;;9.80;98.30;;;;;;5195379;22;20433;-80
2021/10/17 00:29:19;;;;;;;9.00;4.40;;;9.70;98.30;;;;;;5194574;22;20490;-79
2021/10/17 00:31:24;;;;;;;6.67;3.90;;;9.70;98.30;;;;;;5194812;22;20518;-80
2021/10/17 00:33:27;;;;;;;5.20;3.70;;;9.80;98.30;;;;;;5195325;22;20510;-80
2021/10/17 00:35:30;;;;;;;6.50;3.77;;;9.80;98.30;;;;;;5194476;22;20482;-80
2021/10/17 00:37:33;;;;;;;7.33;3.70;;;9.80;98.30;;;;;;5194773;22;20494;-80
2021/10/17 00:39:37;;;;;;;12.20;4.47;;;9.80;98.30;;;;;;5195548;22;20510;-80
2021/10/17 00:41:40;;;;;;;13.80;4.23;;;9.70;98.30;;;;;;5195134;22;20415;-80
2021/10/17 00:43:44;;;;;;;7.10;4.13;;;9.80;98.30;;;;;;5203913;22;20448;-80
2021/10/17 00:45:47;;;;;;;8.00;4.00;;;9.70;98.30;;;;;;5194996;22;20523;-80
2021/10/17 00:47:51;;;;;;;5.60;3.90;;;9.70;98.30;;;;;;5194366;22;20431;-80
2021/10/17 00:49:55;;;;;;;13.17;5.27;;;9.70;98.30;;;;;;5194149;22;20807;-80
2021/10/17 00:52:02;;;;;;;7.30;4.10;;;9.70;98.30;;;;;;5194923;22;20453;-79
2021/10/17 00:54:05;;;;;;;6.93;4.30;;;9.70;98.30;;;;;;5194603;22;20510;-79
2021/10/17 00:56:08;;;;;;;11.00;4.80;;;9.70;98.30;;;;;;5193853;22;20522;-79
2021/10/17 00:58:15;;;;;;;11.77;3.87;;;9.70;98.30;;;;;;5195319;22;20463;-79
2021/10/17 01:00:18;;;;;;;12.57;4.33;;;9.80;98.30;;;;;;5195207;22;20792;-79
2021/10/17 01:02:21;;;;;;;6.20;3.70;;;9.80;98.30;;;;;;5196561;22;20455;-80
2021/10/17 01:04:27;;;;;;;5.50;3.90;;;9.70;98.30;;;;;;5196486;22;20454;-79
2021/10/17 01:06:30;;;;;;;8.73;4.20;;;9.70;98.30;;;;;;5204191;22;20449;-79
2021/10/17 01:08:33;;;;;;;9.23;4.40;;;9.70;98.30;;;;;;5197059;22;20427;-80
2021/10/17 01:10:36;;;;;;;7.33;4.30;;;9.70;98.30;;;;;;5197443;22;20426;-80
2021/10/17 01:12:39;;;;;;;8.13;4.43;;;9.70;98.30;;;;;;5196457;22;20514;-80
2021/10/17 01:14:42;;;;;;;9.47;4.10;;;9.70;98.30;;;;;;5196523;22;21191;-80
2021/10/17 01:16:45;;;;;;;5.13;3.47;;;9.70;98.30;;;;;;5197627;22;20517;-80
2021/10/17 01:19:01;;;;;;;6.90;3.87;;;9.70;98.30;;;;;;5197391;22;20422;-80
2021/10/17 01:21:08;;;;;;;6.50;4.07;;;9.70;98.30;;;;;;5205809;22;20430;-80
2021/10/17 01:23:11;;;;;;;6.40;3.70;;;9.70;98.30;;;;;;5197604;22;20447;-80
2021/10/17 01:25:14;;;;;;;7.10;4.10;;;9.70;98.30;;;;;;5196759;22;20572;-80
2021/10/17 01:27:17;;;;;;;10.90;4.23;;;9.70;98.30;;;;;;5196863;22;20434;-80
2021/10/17 01:29:20;;;;;;;4.97;3.90;;;9.60;98.30;;;;;;5197520;22;20740;-80
2021/10/17 01:31:37;;;;;;;5.67;3.80;;;9.60;98.30;;;;;;5196558;22;20461;-80
2021/10/17 01:33:39;;;;;;;6.97;4.40;;;9.60;98.30;;;;;;5196404;22;20407;-80
2021/10/17 01:35:43;;;;;;;11.40;4.90;;;9.60;98.30;;;;;;5203349;22;20431;-80
2021/10/17 01:37:47;;;;;;;7.80;4.23;;;9.60;98.30;;;;;;5195395;22;20437;-80
2021/10/17 01:39:50;;;;;;;10.17;4.77;;;9.50;98.30;;;;;;5204185;22;20429;-79
2021/10/17 01:41:53;;;;;;;6.87;4.43;;;9.60;98.30;;;;;;5195929;22;20423;-80
2021/10/17 01:44:01;;;;;;;7.13;4.20;;;9.60;98.30;;;;;;5195554;22;20434;-80
2021/10/17 01:46:04;;;;;;;8.83;4.30;;;9.60;98.30;;;;;;5204485;22;20786;-80
2021/10/17 01:48:07;;;;;;;7.50;4.40;;;9.60;98.30;;;;;;5195986;22;20434;-80
2021/10/17 01:50:10;;;;;;;11.60;4.27;;;9.60;98.30;;;;;;5204212;22;20422;-80
2021/10/17 01:52:13;;;;;;;5.00;4.10;;;9.60;98.30;;;;;;5196062;22;20451;-80
2021/10/17 01:54:17;;;;;;;6.03;4.17;;;9.60;98.30;;;;;;5197029;22;20534;-80
2021/10/17 01:56:20;;;;;;;6.60;4.33;;;9.60;98.30;;;;;;5204575;22;20434;-80
2021/10/17 01:58:23;;;;;;;9.40;3.90;;;9.60;98.30;;;;;;5196556;22;20422;-80
2021/10/17 02:00:26;;;;;;;10.90;4.73;;;9.60;98.30;;;;;;5204994;22;20799;-79
2021/10/17 02:02:29;;;;;;;7.37;4.93;;;9.60;98.30;;;;;;5197486;22;20430;-80
2021/10/17 02:04:32;;;;;;;8.93;4.50;;;9.60;98.30;;;;;;5205157;22;20419;-80
2021/10/17 02:06:35;;;;;;;10.97;5.60;;;9.60;98.30;;;;;;5197584;22;20442;-81
2021/10/17 02:08:38;;;;;;;7.20;4.90;;;9.60;98.30;;;;;;5197804;22;20462;-81
2021/10/17 02:10:42;;;;;;;10.57;4.93;;;9.60;98.30;;;;;;5197188;22;20427;-80
2021/10/17 02:12:45;;;;;;;6.80;4.83;;;9.60;98.30;;;;;;5197162;22;20470;-80
2021/10/17 02:14:48;;;;;;;7.57;4.60;;;9.60;98.30;;;;;;5197398;22;20454;-81
2021/10/17 02:16:51;;;;;;;8.50;4.67;;;9.60;98.30;;;;;;5205635;22;20442;-80
2021/10/17 02:18:54;;;;;;;6.40;4.90;;;9.60;98.30;;;;;;5196029;22;20956;-79
2021/10/17 02:20:57;;;;;;;7.70;4.73;;;9.60;98.30;;;;;;5196174;22;20439;-80
2021/10/17 02:23:00;;;;;;;10.20;4.83;;;9.60;98.30;;;;;;5196273;22;20768;-79
2021/10/17 02:25:04;;;;;;;9.20;5.10;;;9.60;98.30;;;;;;5195752;22;20434;-79
2021/10/17 02:27:08;;;;;;;11.17;6.23;;;9.60;98.30;;;;;;5205722;22;20472;-80
2021/10/17 02:29:11;;;;;;;12.73;5.80;;;9.60;98.30;;;;;;5207034;22;20425;-80
2021/10/17 02:31:14;;;;;;;8.63;5.70;;;9.60;98.30;;;;;;5206945;22;20423;-80
2021/10/17 02:33:17;;;;;;;9.80;5.83;;;9.60;98.30;;;;;;5208351;22;20453;-80
2021/10/17 02:35:20;;;;;;;12.47;5.60;;;9.50;98.30;;;;;;5218355;22;20422;-80
2021/10/17 02:37:23;;;;;;;10.90;4.90;;;9.60;98.30;;;;;;5219252;22;20423;-80
2021/10/17 02:39:26;;;;;;;15.60;5.77;;;9.60;98.30;;;;;;5218740;22;20478;-80
2021/10/17 02:41:28;;;;;;;8.73;4.97;;;9.60;98.30;;;;;;5220530;22;20530;-80
2021/10/17 02:43:33;;;;;;;6.77;4.70;;;9.70;98.30;;;;;;5221079;22;20411;-81
2021/10/17 02:45:37;;;;;;;11.43;5.83;;;9.60;98.30;;;;;;5220463;22;20441;-80
2021/10/17 02:47:40;;;;;;;9.80;5.20;;;9.60;98.30;;;;;;5220144;22;20438;-80
2021/10/17 02:49:43;;;;;;;9.80;5.00;;;9.60;98.30;;;;;;5214001;22;20454;-80
2021/10/17 02:51:45;;;;;;;7.10;4.80;;;9.50;98.30;;;;;;5207779;22;20749;-80
2021/10/17 02:53:49;;;;;;;8.83;5.30;;;9.50;98.30;;;;;;5207662;22;20447;-80
2021/10/17 02:55:55;;;;;;;8.77;5.70;;;9.40;98.30;;;;;;5207042;22;20480;-80
2021/10/17 02:57:58;;;;;;;15.90;6.07;;;9.40;98.30;;;;;;5207529;22;20423;-81
2021/10/17 03:00:03;;;;;;;10.83;5.73;;;9.40;98.30;;;;;;5207234;22;20425;-80
2021/10/17 03:02:06;;;;;;;9.87;5.97;;;9.40;98.30;;;;;;5207959;22;20975;-81
2021/10/17 03:04:09;;;;;;;8.17;5.53;;;9.40;98.30;;;;;;5207447;22;20434;-81
2021/10/17 03:06:12;;;;;;;9.70;5.93;;;9.40;98.30;;;;;;5206975;22;20447;-81
2021/10/17 03:08:15;;;;;;;14.30;5.80;;;9.40;98.30;;;;;;5207262;22;20494;-80
2021/10/17 03:10:18;;;;;;;7.73;5.80;;;9.40;98.30;;;;;;5207201;22;20423;-81
2021/10/17 03:12:21;;;;;;;12.37;5.77;;;9.40;98.30;;;;;;5205220;22;20769;-80
2021/10/17 03:14:24;;;;;;;9.30;5.80;;;9.40;98.30;;;;;;5204724;22;20522;-80
2021/10/17 03:16:28;;;;;;;8.77;6.07;;;9.40;98.30;;;;;;5204851;22;20447;-80
2021/10/17 03:18:32;;;;;;;13.70;5.90;;;9.40;98.30;;;;;;5205690;22;20411;-81
2021/10/17 03:20:35;;;;;;;14.47;5.67;;;9.40;98.30;;;;;;5206436;22;20422;-81
2021/10/17 03:22:38;;;;;;;10.23;5.73;;;9.40;98.30;;;;;;5207014;22;20423;-81
2021/10/17 03:24:41;;;;;;;10.00;5.80;;;9.50;98.30;;;;;;5206668;22;20426;-81
2021/10/17 03:26:59;;;;;;;10.90;6.70;;;9.40;98.30;;;;;;5206991;22;20443;-80
2021/10/17 03:29:02;;;;;;;10.47;6.30;;;9.50;98.30;;;;;;5203968;22;20433;-81
2021/10/17 03:31:07;;;;;;;13.83;5.93;;;9.50;98.30;;;;;;5205668;22;20751;-81
2021/10/17 03:33:11;;;;;;;12.23;6.87;;;9.40;98.30;;;;;;5206048;22;20802;-81
2021/10/17 03:35:14;;;;;;;13.43;6.63;;;9.40;98.30;;;;;;5197170;22;20815;-81
2021/10/17 03:37:17;;;;;;;12.10;7.77;;;9.40;98.30;;;;;;5206277;22;20426;-80
2021/10/17 03:39:20;;;;;;;10.70;6.03;;;9.50;98.30;;;;;;5205688;22;21112;-80
2021/10/17 03:41:23;;;;;;;11.10;5.37;;;9.40;98.30;;;;;;5206279;22;20429;-81
2021/10/17 03:43:26;;;;;;;8.67;5.63;;;9.40;98.30;;;;;;5205570;22;20433;-81
2021/10/17 03:45:30;;;;;;;9.43;6.67;;;9.50;98.30;;;;;;5205255;22;20460;-80
2021/10/17 03:47:33;;;;;;;13.17;6.57;;;9.50;98.30;;;;;;5205095;22;20427;-80
2021/10/17 03:49:37;;;;;;;15.80;6.50;;;9.40;98.30;;;;;;5205488;22;20415;-81
2021/10/17 03:51:40;;;;;;;17.77;6.30;;;9.40;98.30;;;;;;5196601;22;20930;-81
2021/10/17 03:53:43;;;;;;;10.47;6.37;;;9.40;98.30;;;;;;5204899;22;20904;-81
2021/10/17 03:55:46;;;;;;;13.17;6.60;;;9.50;98.30;;;;;;5204544;22;20446;-80
2021/10/17 03:57:49;;;;;;;11.00;5.97;;;9.40;98.30;;;;;;5197197;22;21217;-81
2021/10/17 03:59:52;;;;;;;11.60;6.80;;;9.40;98.30;;;;;;5205248;22;20508;-81
2021/10/17 04:01:54;;;;;;;12.60;7.90;;;9.40;98.30;;;;;;5204788;22;20752;-81
2021/10/17 04:03:57;;;;;;;20.07;6.17;;;9.40;98.30;;;;;;5205298;22;20476;-81
2021/10/17 04:06:02;;;;;;;10.10;5.80;;;9.50;98.30;;;;;;5205113;22;20720;-81
2021/10/17 04:08:07;;;;;;;13.40;6.07;;;9.50;98.30;;;;;;5205297;22;20450;-81
2021/10/17 04:10:10;;;;;;;7.87;6.30;;;9.40;98.30;;;;;;5206051;22;20462;-81
2021/10/17 04:12:14;;;;;;;10.27;6.60;;;9.40;98.30;;;;;;5197050;22;20430;-81
2021/10/17 04:14:16;;;;;;;9.40;6.83;;;9.40;98.30;;;;;;5206291;22;20501;-80
2021/10/17 04:16:19;;;;;;;17.23;7.93;;;9.40;98.30;;;;;;5205519;22;20446;-80
2021/10/17 04:18:22;;;;;;;12.73;6.87;;;9.40;98.30;;;;;;5196899;22;20983;-80
2021/10/17 04:20:25;;;;;;;11.67;7.30;;;9.40;98.30;;;;;;5203826;22;20423;-81
2021/10/17 04:22:30;;;;;;;11.73;7.23;;;9.40;98.30;;;;;;5204696;22;20423;-81
2021/10/17 04:24:33;;;;;;;12.33;8.17;;;9.40;98.30;;;;;;5203540;22;20987;-80
2021/10/17 04:26:37;;;;;;;11.07;6.57;;;9.40;98.30;;;;;;5204354;22;20431;-80
2021/10/17 04:28:39;;;;;;;15.57;7.40;;;9.40;98.30;;;;;;5204095;22;20498;-80
2021/10/17 04:30:42;;;;;;;16.17;7.67;;;9.40;98.30;;;;;;5204141;22;20775;-80
2021/10/17 04:32:45;;;;;;;13.83;7.60;;;9.40;98.30;;;;;;5204471;22;20423;-80
2021/10/17 04:34:48;;;;;;;12.87;7.80;;;9.40;98.30;;;;;;5203794;22;20457;-80
2021/10/17 04:36:51;;;;;;;13.20;7.67;;;9.40;98.30;;;;;;5197163;22;20442;-80
2021/10/17 04:38:56;;;;;;;12.33;7.30;;;9.40;98.30;;;;;;5197174;22;20430;-81
2021/10/17 04:40:59;;;;;;;13.67;7.37;;;9.40;98.30;;;;;;5195792;22;20917;-81
2021/10/17 04:43:02;;;;;;;11.93;6.43;;;9.40;98.30;;;;;;5195894;22;20448;-81
2021/10/17 04:45:06;;;;;;;12.83;7.80;;;9.50;98.30;;;;;;5204209;22;20423;-81
2021/10/17 04:47:09;;;;;;;10.63;7.30;;;9.50;98.30;;;;;;5196700;22;20896;-81
2021/10/17 04:49:12;;;;;;;18.13;8.13;;;9.40;98.30;;;;;;5205750;22;20437;-81
2021/10/17 04:51:15;;;;;;;13.50;7.20;;;9.50;98.30;;;;;;5205158;22;20423;-81
2021/10/17 04:53:18;;;;;;;16.97;8.23;;;9.50;98.30;;;;;;5204481;22;20439;-82
2021/10/17 04:55:22;;;;;;;14.50;6.87;;;9.50;98.30;;;;;;5202331;22;20457;-81
2021/10/17 04:57:25;;;;;;;11.80;7.70;;;9.50;98.30;;;;;;5196002;22;20434;-81
2021/10/17 04:59:31;;;;;;;13.13;6.87;;;9.50;98.30;;;;;;5195468;22;20415;-81
2021/10/17 05:01:34;;;;;;;12.20;7.40;;;9.50;98.30;;;;;;5203244;22;20419;-81
2021/10/17 05:03:40;;;;;;;9.93;6.87;;;9.50;98.30;;;;;;5202822;22;20419;-81
2021/10/17 05:05:43;;;;;;;11.60;7.10;;;9.50;98.30;;;;;;5193295;22;20450;-81
2021/10/17 05:07:46;;;;;;;14.53;7.80;;;9.50;98.30;;;;;;5201146;22;20838;-81
2021/10/17 05:09:49;;;;;;;18.93;7.50;;;9.50;98.30;;;;;;5193469;22;20431;-81
2021/10/17 05:11:53;;;;;;;12.27;7.23;;;9.60;98.30;;;;;;5192721;22;20422;-81
2021/10/17 05:13:56;;;;;;;11.70;7.53;;;9.50;98.30;;;;;;5192264;22;20446;-81
2021/10/17 05:15:59;;;;;;;16.47;8.30;;;9.50;98.30;;;;;;5200317;22;20420;-81
2021/10/17 05:18:02;;;;;;;12.20;7.97;;;9.50;98.30;;;;;;5201411;22;20417;-81
2021/10/17 05:20:05;;;;;;;12.00;7.90;;;9.50;98.30;;;;;;5200631;22;20407;-81
2021/10/17 05:22:08;;;;;;;13.00;7.23;;;9.50;98.30;;;;;;5192555;22;20433;-81
2021/10/17 05:24:11;;;;;;;12.00;7.97;;;9.60;98.30;;;;;;5201497;22;20525;-81
2021/10/17 05:26:14;;;;;;;14.20;8.33;;;9.50;98.30;;;;;;5199938;22;20449;-81
2021/10/17 05:28:18;;;;;;;9.40;7.50;;;9.60;98.30;;;;;;5192666;22;20744;-81
2021/10/17 05:30:22;;;;;;;14.97;8.40;;;9.60;98.30;;;;;;5192986;22;20958;-81
2021/10/17 05:32:25;;;;;;;15.13;7.20;;;9.50;98.30;;;;;;5200244;22;20423;-81
2021/10/17 05:34:28;;;;;;;10.73;7.83;;;9.50;98.30;;;;;;5200033;22;20435;-81
2021/10/17 05:36:31;;;;;;;15.23;7.60;;;9.60;98.30;;;;;;5192138;22;20447;-81
2021/10/17 05:38:34;;;;;;;15.13;7.43;;;9.60;98.30;;;;;;5192189;22;20430;-81
2021/10/17 05:40:37;;;;;;;12.00;7.40;;;9.60;98.30;;;;;;5201482;22;20415;-81
2021/10/17 05:42:40;;;;;;;11.70;7.43;;;9.60;98.30;;;;;;5201391;22;20442;-81
2021/10/17 05:44:44;;;;;;;9.53;7.33;;;9.60;98.30;;;;;;5200628;22;20903;-81
2021/10/17 05:46:47;;;;;;;12.47;7.43;;;9.60;98.30;;;;;;5191989;22;20775;-81
2021/10/17 05:48:50;;;;;;;13.37;6.63;;;9.60;98.30;;;;;;5192230;22;20430;-81
2021/10/17 05:50:53;;;;;;;16.00;8.20;;;9.70;98.30;;;;;;5192445;22;20434;-81
2021/10/17 05:52:56;;;;;;;10.63;7.50;;;9.70;98.30;;;;;;5193289;22;20750;-81
2021/10/17 05:54:59;;;;;;;10.80;6.87;;;9.70;98.30;;;;;;5203760;22;20445;-80
2021/10/17 05:57:02;;;;;;;14.37;7.30;;;9.60;98.30;;;;;;5204802;22;20434;-81
2021/10/17 05:59:08;;;;;;;13.00;7.90;;;9.60;98.30;;;;;;5198006;22;20437;-81
2021/10/17 06:01:13;;;;;;;14.37;8.20;;;9.60;98.30;;;;;;5206098;22;20736;-81
2021/10/17 06:03:15;;;;;;;16.80;7.97;;;9.70;98.30;;;;;;5197467;22;20449;-80
2021/10/17 06:05:18;;;;;;;11.10;7.87;;;9.70;98.30;;;;;;5197387;22;20505;-81
2021/10/17 06:07:22;;;;;;;10.87;7.67;;;9.70;98.30;;;;;;5197621;22;21031;-81
2021/10/17 06:09:25;;;;;;;10.67;7.57;;;9.70;98.30;;;;;;5205145;22;20426;-81
2021/10/17 06:11:28;;;;;;;16.43;8.60;;;9.70;98.30;;;;;;5192411;22;20426;-81
2021/10/17 06:13:31;;;;;;;12.40;8.67;;;9.70;98.30;;;;;;5192326;22;20817;-81
2021/10/17 06:15:34;;;;;;;12.50;8.20;;;9.70;98.30;;;;;;5200980;22;20521;-81
2021/10/17 06:17:38;;;;;;;12.80;7.70;;;9.80;98.30;;;;;;5192428;22;20422;-81
2021/10/17 06:19:41;;;;;;;16.20;8.03;;;9.70;98.30;;;;;;5192449;22;20449;-82
2021/10/17 06:21:44;;;;;;;13.13;7.53;;;9.70;98.30;;;;;;5200665;22;20472;-81
2021/10/17 06:23:47;;;;;;;15.27;7.33;;;9.80;98.30;;;;;;5193313;22;20510;-81
2021/10/17 06:25:50;;;;;;;13.30;7.80;;;9.70;98.30;;;;;;5201339;22;20443;-81
2021/10/17 06:27:53;;;;;;;13.70;7.13;;;9.70;98.30;;;;;;5201330;22;20414;-81
2021/10/17 06:29:56;;;;;;;10.00;8.13;;;9.80;98.30;;;;;;5201440;22;20456;-80
2021/10/17 06:31:58;;;;;;;14.23;7.37;;;9.80;98.30;;;;;;5192175;22;20427;-81
2021/10/17 06:34:03;;;;;;;13.80;8.07;;;9.80;98.30;;;;;;5200761;22;20418;-81
2021/10/17 06:36:06;;;;;;;12.10;7.60;;;9.80;98.30;;;;;;5192104;22;20451;-81
2021/10/17 06:38:09;;;;;;;10.37;7.20;;;9.80;98.30;;;;;;5200792;22;20422;-81
2021/10/17 06:40:13;;;;;;;11.43;6.97;;;9.80;98.30;;;;;;5192197;22;20455;-81
2021/10/17 06:42:15;;;;;;;13.80;9.23;;;9.90;98.30;;;;;;5200936;22;20922;-81
2021/10/17 06:44:19;;;;;;;12.87;8.70;;;9.90;98.30;;;;;;5192435;22;20425;-81
2021/10/17 06:46:22;;;;;;;12.93;7.67;;;9.90;98.30;;;;;;5191840;22;20525;-81
2021/10/17 06:48:25;;;;;;;13.23;7.73;;;9.90;98.30;;;;;;5191985;22;20442;-81
2021/10/17 06:50:29;;;;;;;13.53;8.47;;;9.90;98.30;;;;;;5191854;22;20509;-81
2021/10/17 06:52:32;;;;;;;11.83;8.03;;;9.90;98.30;;;;;;5201050;22;20415;-81
2021/10/17 06:54:35;;;;;;;11.53;6.87;;;9.90;98.30;;;;;;5191796;22;20447;-82
2021/10/17 06:56:38;;;;;;;10.30;7.30;;;10.00;98.30;;;;;;5192435;22;20447;-81
2021/10/17 06:58:41;;;;;;;12.47;8.37;;;10.00;98.30;;;;;;5192592;22;20430;-81
2021/10/17 07:00:44;;;;;;;12.70;7.03;;;10.10;98.30;;;;;;5200775;22;20509;-81
2021/10/17 07:02:47;;;;;;;11.33;8.20;;;10.10;98.30;;;;;;5192330;22;20427;-81
2021/10/17 07:04:50;;;;;;;12.50;9.33;;;10.10;98.30;;;;;;5192248;22;20502;-81
2021/10/17 07:06:54;;;;;;;18.80;10.13;;;10.10;98.30;;;;;;5192348;22;20968;-81
2021/10/17 07:08:57;;;;;;;14.47;7.87;;;10.20;98.30;;;;;;5192556;22;20912;-81
2021/10/17 07:11:01;;;;;;;16.87;7.70;;;10.10;98.30;;;;;;5201693;22;20419;-81
2021/10/17 07:13:04;;;;;;;12.10;7.90;;;10.10;98.30;;;;;;5204091;22;20427;-82
2021/10/17 07:15:07;;;;;;;21.43;10.93;;;10.20;98.30;;;;;;5214576;22;20435;-81
2021/10/17 07:17:10;;;;;;;14.47;8.10;;;10.20;98.30;;;;;;5211379;22;20733;-81
2021/10/17 07:19:13;;;;;;;12.47;8.33;;;10.20;98.30;;;;;;5203146;22;20426;-81
2021/10/17 07:21:16;;;;;;;16.77;10.00;;;10.10;98.30;;;;;;5211360;22;20450;-80
2021/10/17 07:23:21;;;;;;;12.00;7.87;;;10.20;98.30;;;;;;5211097;22;20498;-81
2021/10/17 07:25:25;;;;;;;10.50;7.37;;;10.20;98.30;;;;;;5205200;22;20423;-81
2021/10/17 07:27:28;;;;;;;11.00;7.90;;;10.20;98.30;;;;;;5204443;22;20510;-81
2021/10/17 07:29:31;;;;;;;12.50;8.17;;;10.20;98.30;;;;;;5208834;22;20423;-81
2021/10/17 07:31:34;;;;;;;14.47;8.50;;;10.20;98.30;;;;;;5208876;22;20497;-81
2021/10/17 07:33:37;;;;;;;15.10;10.17;;;10.20;98.30;;;;;;5208396;22;20419;-81
2021/10/17 07:35:40;;;;;;;15.73;8.47;;;10.20;98.30;;;;;;5207684;22;20446;-80
2021/10/17 07:37:43;;;;;;;15.27;7.67;;;10.20;98.30;;;;;;5195532;22;20505;-85
2021/10/17 07:39:48;;;;;;;13.57;7.80;;;10.20;98.30;;;;;;5201644;22;20419;-84
2021/10/17 07:41:51;;;;;;;16.90;7.97;;;10.20;98.30;;;;;;5201893;22;20768;-84
2021/10/17 07:43:54;;;;;;;16.50;7.50;;;10.20;98.30;;;;;;5201305;22;20482;-84
2021/10/17 07:46:01;;;;;;;12.63;8.30;;;10.20;98.30;;;;;;5200150;22;20515;-84
2021/10/17 07:48:05;;;;;;;13.70;8.33;;;10.30;98.30;;;;;;5200340;22;20491;-84
2021/10/17 07:50:10;;;;;;;15.97;8.60;;;10.30;98.30;;;;;;5200451;22;20917;-84
2021/10/17 07:52:12;;;;;;;16.13;8.60;;;10.30;98.30;;;;;;5200685;22;20429;-84
2021/10/17 07:54:16;;;;;;;18.87;8.90;;;10.20;98.30;;;;;;5200668;22;20427;-84
2021/10/17 07:56:20;;;;;;;13.60;8.50;;;10.20;98.30;;;;;;5201031;22;20443;-84
2021/10/17 07:58:25;;;;;;;14.87;10.23;;;10.20;98.30;;;;;;5200492;22;20450;-84
2021/10/17 08:00:30;;;;;;;14.67;8.17;;;10.20;98.30;;;;;;5192080;22;20412;-84
2021/10/17 08:02:33;;;;;;;13.30;7.93;;;10.20;98.30;;;;;;5200711;22;20421;-84
2021/10/17 08:04:38;;;;;;;17.60;9.40;;;10.20;98.30;;;;;;5199665;22;20426;-84
2021/10/17 08:06:41;;;;;;;17.37;9.00;;;10.20;98.30;;;;;;5200429;22;20764;-84
2021/10/17 08:08:45;;;;;;;10.80;7.73;;;10.20;98.30;;;;;;5200149;22;20817;-84
2021/10/17 08:10:50;;;;;;;22.53;9.77;;;10.20;98.30;;;;;;5200737;22;20510;-84
2021/10/17 08:12:54;;;;;;;16.50;8.77;;;10.20;98.30;;;;;;5201629;22;21127;-84
2021/10/17 08:14:57;;;;;;;15.43;8.87;;;10.20;98.30;;;;;;5200960;22;20445;-84
2021/10/17 08:17:00;;;;;;;14.63;9.37;;;10.30;98.30;;;;;;5201183;22;20478;-84
2021/10/17 08:19:03;;;;;;;14.13;9.90;;;10.30;98.30;;;;;;5201191;22;20786;-84
2021/10/17 08:21:07;;;;;;;14.57;8.80;;;10.30;98.30;;;;;;5201461;22;21043;-84
2021/10/17 08:23:10;;;;;;;14.90;8.60;;;10.30;98.30;;;;;;5201697;22;20454;-84
2021/10/17 08:25:14;;;;;;;17.10;8.30;;;10.30;98.30;;;;;;5200899;22;20423;-84
2021/10/17 08:27:17;;;;;;;16.80;8.73;;;10.40;98.30;;;;;;5200977;22;20510;-83
2021/10/17 08:29:22;;;;;;;13.90;8.60;;;10.40;98.30;;;;;;5201148;22;20427;-84
2021/10/17 08:31:25;;;;;;;13.60;8.77;;;10.40;98.30;;;;;;5201103;22;20421;-84
2021/10/17 08:33:28;;;;;;;11.93;8.93;;;10.30;98.30;;;;;;5201269;22;20423;-84
2021/10/17 08:35:31;;;;;;;15.53;9.90;;;10.40;98.30;;;;;;5202535;22;20898;-82
2021/10/17 08:37:34;;;;;;;17.63;8.70;;;10.30;98.30;;;;;;5196506;22;20958;-82
2021/10/17 08:39:37;;;;;;;15.87;9.40;;;10.40;98.30;;;;;;5194972;22;20795;-82
2021/10/17 08:41:40;;;;;;;16.43;9.67;;;10.40;98.30;;;;;;5196194;22;20458;-82
2021/10/17 08:43:44;;;;;;;12.30;9.53;;;10.40;98.30;;;;;;5195660;22;20513;-82
2021/10/17 08:45:48;;;;;;;20.73;11.47;;;10.40;98.30;;;;;;5195372;22;20525;-83
2021/10/17 08:47:52;;;;;;;21.00;9.30;;;10.40;98.30;;;;;;5195288;22;20818;-83
2021/10/17 08:49:56;;;;;;;17.90;9.97;;;10.30;98.30;;;;;;5195108;22;20480;-81
2021/10/17 08:51:59;;;;;;;21.67;10.00;;;10.30;98.30;;;;;;5194243;22;20779;-83
2021/10/17 08:54:02;;;;;;;19.77;9.07;;;10.30;98.30;;;;;;5203489;22;20422;-81
2021/10/17 08:56:05;;;;;;;14.20;10.13;;;10.20;98.30;;;;;;5193778;22;20764;-82
2021/10/17 08:58:09;;;;;;;16.07;9.70;;;10.20;98.30;;;;;;5202761;22;20418;-82
2021/10/17 09:00:32;;;;;;;14.20;9.90;;;10.30;98.30;;;;;;5201735;22;20425;-82
2021/10/17 09:02:43;;;;;;;15.50;10.10;;;10.20;98.30;;;;;;5202156;22;20415;-82
2021/10/17 09:04:58;;;;;;;17.60;10.20;;;10.20;98.30;;;;;;5193594;22;20415;-82
2021/10/17 09:07:16;;;;;;;15.67;10.10;;;10.20;98.30;;;;;;5201544;22;20477;-82
2021/10/17 09:09:19;;;;;;;21.50;11.23;;;10.20;98.30;;;;;;5195845;22;20432;-82
2021/10/17 09:11:40;;;;;;;16.50;11.27;;;10.20;98.30;;;;;;5195404;22;20729;-81
2021/10/17 09:14:04;;;;;;;18.20;11.67;;;10.20;98.30;;;;;;5195245;22;21058;-81
2021/10/17 09:16:23;;;;;;;19.23;11.27;;;10.20;98.30;;;;;;5194287;22;20939;-82
2021/10/17 09:18:30;;;;;;;18.80;11.00;;;10.20;98.30;;;;;;5194824;22;20795;-81
2021/10/17 09:20:34;;;;;;;22.97;12.40;;;10.20;98.30;;;;;;5194340;22;20407;-82
2021/10/17 09:22:37;;;;;;;17.60;12.10;;;10.20;98.30;;;;;;5194307;22;20460;-82
2021/10/17 09:24:41;;;;;;;22.20;12.10;;;10.10;98.30;;;;;;5193821;22;20492;-82
2021/10/17 09:27:02;;;;;;;20.27;11.70;;;10.20;98.30;;;;;;5193529;22;20439;-83
2021/10/17 09:29:06;;;;;;;24.77;13.63;;;10.20;98.30;;;;;;5193304;22;20430;-82
2021/10/17 09:31:11;;;;;;;20.10;11.47;;;10.10;98.30;;;;;;5195690;22;20756;-82
2021/10/17 09:33:18;;;;;;;28.10;15.70;;;10.10;98.30;;;;;;5198035;22;20427;-83
2021/10/17 09:35:31;;;;;;;21.30;11.90;;;10.10;98.30;;;;;;5207304;22;20466;-82
2021/10/17 09:37:38;;;;;;;23.10;13.00;;;10.20;98.30;;;;;;5200696;22;20518;-82
2021/10/17 09:39:45;;;;;;;20.07;14.57;;;10.20;98.30;;;;;;5199805;22;20764;-82
2021/10/17 09:41:53;;;;;;;19.70;13.60;;;10.20;98.30;;;;;;5200035;22;20411;-82
2021/10/17 09:43:58;;;;;;;22.77;14.70;;;10.20;98.30;;;;;;5198507;22;20517;-82
2021/10/17 09:46:08;;;;;;;22.90;13.77;;;10.30;98.30;;;;;;5206300;22;20443;-82
2021/10/17 09:48:28;;;;;;;22.17;13.10;;;10.30;98.30;;;;;;5198109;22;20431;-82
2021/10/17 09:50:32;;;;;;;27.27;12.27;;;10.30;98.30;;;;;;5206938;22;20418;-82
2021/10/17 09:52:35;;;;;;;23.50;13.00;;;10.30;98.30;;;;;;5207337;22;20460;-82
2021/10/17 09:54:38;;;;;;;21.10;13.70;;;10.40;98.30;;;;;;5198181;22;20427;-82
2021/10/17 09:56:43;;;;;;;18.83;12.73;;;10.50;98.30;;;;;;5206562;22;20470;-82
2021/10/17 09:58:46;;;;;;;27.10;12.80;;;10.50;98.30;;;;;;5199085;22;20423;-82
2021/10/17 10:00:49;;;;;;;26.20;14.60;;;10.50;98.30;;;;;;5207298;22;20419;-82
2021/10/17 10:02:56;;;;;;;23.03;12.97;;;10.50;98.30;;;;;;5199196;22;20411;-83
2021/10/17 10:04:59;;;;;;;22.53;13.37;;;10.50;98.30;;;;;;5198350;22;20423;-82
2021/10/17 10:07:04;;;;;;;24.63;13.07;;;10.60;98.30;;;;;;5199276;22;20557;-82
2021/10/17 10:09:09;;;;;;;20.77;12.90;;;10.60;98.30;;;;;;5199396;22;20509;-82
2021/10/17 10:11:12;;;;;;;26.70;12.97;;;10.60;98.30;;;;;;5200062;22;20942;-82
2021/10/17 10:13:18;;;;;;;21.30;13.00;;;10.70;98.30;;;;;;5199670;22;20435;-81
2021/10/17 10:15:22;;;;;;;18.90;11.87;;;10.60;98.30;;;;;;5197951;22;20422;-82
2021/10/17 10:17:27;;;;;;;20.97;13.03;;;10.60;98.30;;;;;;5207055;22;20446;-82
2021/10/17 10:19:32;;;;;;;22.17;12.40;;;10.60;98.30;;;;;;5207657;22;20443;-81
2021/10/17 10:21:36;;;;;;;21.93;12.67;;;10.50;98.30;;;;;;5206058;22;20855;-82
2021/10/17 10:23:41;;;;;;;21.63;13.83;;;10.50;98.30;;;;;;5198414;22;20423;-82
2021/10/17 10:25:45;;;;;;;27.10;13.77;;;10.50;98.30;;;;;;5206841;22;20842;-81
2021/10/17 10:27:49;;;;;;;21.20;13.70;;;10.40;98.30;;;;;;5198690;22;20455;-82
2021/10/17 10:29:52;;;;;;;18.20;12.70;;;10.40;98.30;;;;;;5198820;22;20458;-82
2021/10/17 10:31:57;;;;;;;26.50;14.33;;;10.40;98.30;;;;;;5207108;22;20514;-81
2021/10/17 10:34:00;;;;;;;20.13;14.20;;;10.30;98.30;;;;;;5197175;22;20429;-82
2021/10/17 10:36:06;;;;;;;28.00;15.43;;;10.30;98.30;;;;;;5198565;22;20529;-82
2021/10/17 11:17:51;;;;;;;26.77;16.60;;;10.60;98.30;;;;;;4202356;27;20557;-84
2021/10/17 11:19:57;;;;;;;26.77;16.73;;;10.70;98.30;;;;;;4195919;28;20499;-85
2021/10/17 11:22:28;;;;;;;26.17;17.23;;;10.70;98.30;;;;;;4194240;28;20505;-85